Time;durP1;ratioP1;P1;durP2;ratioP2;P2;SDS_P1;SDS_P2;PMS_P1;PMS_P2;Temp;Humidity;BMP_temperature;BMP_pressure;BME280_temperature;BME280_humidity;BME280_pressure;Samples;Min_cycle;Max_cycle;Signal;HPM_P1;HPM_P2
2024/02/23 00:01:20;;;;;;;;;;;;;;;;;;2189906;67;1373;-24
2024/02/23 00:04:02;;;;;;;;;;;;;;;;;;2189839;59;1349;-24
2024/02/23 00:06:35;;;;;;;;;;;;;;;;;;2190824;66;1354;-24
2024/02/23 00:09:05;;;;;;;;;;;;;;;;;;2192775;67;1281;-24
2024/02/23 00:11:40;;;;;;;;;;;;;;;;;;2203692;66;2003;-24
2024/02/23 00:14:12;;;;;;;;;;;;;;;;;;2193014;59;1559;-24
2024/02/23 00:16:43;;;;;;;;;;;;;;;;;;2192624;66;1170;-23
2024/02/23 00:19:13;;;;;;;;;;;;;;;;;;2192142;66;1493;-24
2024/02/23 00:21:47;;;;;;;;;;;;;;;;;;2192616;59;1143;-24
2024/02/23 00:24:17;;;;;;;;;;;;;;;;;;2192660;66;1286;-24
2024/02/23 00:26:48;;;;;;;;;;;;;;;;;;2189897;67;1455;-23
2024/02/23 00:29:18;;;;;;;;;;;;;;;;;;2195527;66;1412;-23
2024/02/23 00:31:49;;;;;;;;;;;;;;;;;;2194492;59;2509;-25
2024/02/23 00:34:19;;;;;;;;;;;;;;;;;;2191823;66;1660;-25
2024/02/23 00:36:49;;;;;;;;;;;;;;;;;;2188653;66;1772;-25
2024/02/23 00:39:19;;;;;;;;;;;;;;;;;;2189227;67;3366;-25
2024/02/23 00:41:50;;;;;;;;;;;;;;;;;;2194357;59;1800;-25
2024/02/23 00:44:20;;;;;;;;;;;;;;;;;;2189989;67;1789;-25
2024/02/23 00:46:53;;;;;;;;;;;;;;;;;;2189989;59;1984;-25
2024/02/23 00:49:25;;;;;;;;;;;;;;;;;;2193430;66;1946;-25
2024/02/23 00:51:55;;;;;;;;;;;;;;;;;;2192456;66;1940;-25
2024/02/23 00:54:25;;;;;;;;;;;;;;;;;;2193185;66;1636;-25
2024/02/23 00:56:56;;;;;;;;;;;;;;;;;;2192790;66;1972;-25
2024/02/23 00:59:28;;;;;;;;;;;;;;;;;;2192673;66;1590;-25
2024/02/23 01:01:58;;;;;;;;;;;;;;;;;;2192389;66;1495;-25
2024/02/23 01:04:28;;;;;;;;;;;;;;;;;;2192213;59;1745;-25
2024/02/23 01:06:59;;;;;;;;;;;;;;;;;;2192524;66;2231;-25
2024/02/23 01:09:30;;;;;;;;;;;;;;;;;;2191106;66;1702;-25
2024/02/23 01:12:00;;;;;;;;;;;;;;;;;;2189387;67;1988;-25
2024/02/23 01:14:32;;;;;;;;;;;;;;;;;;2192287;59;1765;-25
2024/02/23 01:17:02;;;;;;;;;;;;;;;;;;2193367;66;1331;-25
2024/02/23 01:19:35;;;;;;;;;;;;;;;;;;2188395;59;1607;-25
2024/02/23 01:22:06;;;;;;;;;;;;;;;;;;2192468;59;1869;-25
2024/02/23 01:24:36;;;;;;;;;;;;;;;;;;2188110;66;1604;-25
2024/02/23 01:27:06;;;;;;;;;;;;;;;;;;2204022;66;2072;-25
2024/02/23 01:29:39;;;;;;;;;;;;;;;;;;2192701;66;1482;-25
2024/02/23 01:32:10;;;;;;;;;;;;;;;;;;2192919;66;1946;-25
2024/02/23 01:34:40;;;;;;;;;;;;;;;;;;2186086;59;1592;-25
2024/02/23 01:37:11;;;;;;;;;;;;;;;;;;2192595;66;1502;-25
2024/02/23 01:39:41;;;;;;;;;;;;;;;;;;2192394;59;3098;-25
2024/02/23 01:42:11;;;;;;;;;;;;;;;;;;2189845;59;2000;-25
2024/02/23 01:44:44;;;;;;;;;;;;;;;;;;2191323;59;2005;-25
2024/02/23 01:47:15;;;;;;;;;;;;;;;;;;2189946;59;1894;-25
2024/02/23 01:49:46;;;;;;;;;;;;;;;;;;2187952;66;1635;-24
2024/02/23 01:52:17;;;;;;;;;;;;;;;;;;2192545;66;1932;-25
2024/02/23 01:54:49;;;;;;;;;;;;;;;;;;2191311;66;1649;-24
2024/02/23 01:57:21;;;;;;;;;;;;;;;;;;2189605;67;1624;-24
2024/02/23 01:59:51;;;;;;;;;;;;;;;;;;2192874;60;1564;-25
2024/02/23 02:02:22;;;;;;;;;;;;;;;;;;2191819;66;1864;-25
2024/02/23 02:04:55;;;;;;;;;;;;;;;;;;2186244;66;1893;-25
2024/02/23 02:07:25;;;;;;;;;;;;;;;;;;2188585;67;1665;-25
2024/02/23 02:09:56;;;;;;;;;;;;;;;;;;2191322;66;1571;-25
2024/02/23 02:12:29;;;;;;;;;;;;;;;;;;2188548;67;1946;-25
2024/02/23 02:15:01;;;;;;;;;;;;;;;;;;2191744;59;1776;-24
2024/02/23 02:17:32;;;;;;;;;;;;;;;;;;2192904;66;1645;-30
2024/02/23 02:20:05;;;;;;;;;;;;;;;;;;2189428;67;1335;-24
2024/02/23 02:22:36;;;;;;;;;;;;;;;;;;2189907;67;1782;-24
2024/02/23 02:25:06;;;;;;;;;;;;;;;;;;2193556;66;1500;-24
2024/02/23 02:27:38;;;;;;;;;;;;;;;;;;2192705;66;1769;-24
2024/02/23 02:30:08;;;;;;;;;;;;;;;;;;2193210;66;1936;-24
2024/02/23 02:32:38;;;;;;;;;;;;;;;;;;2192375;66;1764;-24
2024/02/23 02:35:12;;;;;;;;;;;;;;;;;;2194515;59;1658;-24
2024/02/23 02:37:42;;;;;;;;;;;;;;;;;;2193118;66;1559;-24
2024/02/23 02:40:12;;;;;;;;;;;;;;;;;;2193604;59;3056;-24
2024/02/23 02:42:43;;;;;;;;;;;;;;;;;;2193142;66;1422;-24
2024/02/23 02:45:13;;;;;;;;;;;;;;;;;;2194258;59;1609;-24
2024/02/23 02:47:43;;;;;;;;;;;;;;;;;;2193141;66;2415;-24
2024/02/23 02:50:14;;;;;;;;;;;;;;;;;;2189393;67;1995;-24
2024/02/23 02:52:46;;;;;;;;;;;;;;;;;;2191748;66;1593;-22
2024/02/23 02:55:16;;;;;;;;;;;;;;;;;;2192528;67;1692;-23
2024/02/23 02:57:47;;;;;;;;;;;;;;;;;;2188970;59;2389;-22
2024/02/23 03:00:18;;;;;;;;;;;;;;;;;;2189862;60;1611;-22
2024/02/23 03:02:49;;;;;;;;;;;;;;;;;;2189073;59;1603;-22
2024/02/23 03:05:19;;;;;;;;;;;;;;;;;;2193372;66;1656;-22
2024/02/23 03:07:51;;;;;;;;;;;;;;;;;;2203165;66;1741;-22
2024/02/23 03:10:21;;;;;;;;;;;;;;;;;;2190512;59;2472;-22
2024/02/23 03:12:53;;;;;;;;;;;;;;;;;;2191900;66;1656;-24
2024/02/23 03:15:23;;;;;;;;;;;;;;;;;;2192695;59;1511;-24
2024/02/23 03:18:00;;;;;;;;;;;;;;;;;;2190345;66;1507;-24
2024/02/23 03:20:31;;;;;;;;;;;;;;;;;;2192246;66;1751;-24
2024/02/23 03:23:03;;;;;;;;;;;;;;;;;;2193726;54;3229;-18
2024/02/23 03:25:33;;;;;;;;;;;;;;;;;;2197265;59;2396;-18
2024/02/23 03:28:04;;;;;;;;;;;;;;;;;;2202196;59;1844;-19
2024/02/23 03:30:37;;;;;;;;;;;;;;;;;;2201765;66;2950;-18
2024/02/23 03:33:07;;;;;;;;;;;;;;;;;;2209323;58;1856;-18
2024/02/23 03:35:38;;;;;;;;;;;;;;;;;;2209013;66;1845;-18
2024/02/23 03:38:16;;;;;;;;;;;;;;;;;;2201144;66;2436;-18
2024/02/23 03:41:02;;;;;;;;;;;;;;;;;;2201553;59;1890;-18
2024/02/23 03:43:33;;;;;;;;;;;;;;;;;;2200296;66;1884;-18
2024/02/23 03:46:07;;;;;;;;;;;;;;;;;;2199973;59;2920;-18
2024/02/23 03:48:37;;;;;;;;;;;;;;;;;;2197872;66;2665;-19
2024/02/23 03:51:08;;;;;;;;;;;;;;;;;;2200597;66;2403;-19
2024/02/23 03:53:39;;;;;;;;;;;;;;;;;;2200851;66;2900;-18
2024/02/23 03:56:09;;;;;;;;;;;;;;;;;;2196314;66;2855;-18
2024/02/23 03:58:41;;;;;;;;;;;;;;;;;;2199563;59;2300;-18
2024/02/23 04:01:13;;;;;;;;;;;;;;;;;;2199552;59;2554;-18
2024/02/23 04:03:46;;;;;;;;;;;;;;;;;;2199846;66;2078;-19
2024/02/23 04:06:20;;;;;;;;;;;;;;;;;;2200062;66;1777;-18
2024/02/23 04:08:51;;;;;;;;;;;;;;;;;;2199747;66;1878;-18
2024/02/23 04:11:22;;;;;;;;;;;;;;;;;;2198172;66;2503;-18
2024/02/23 04:13:53;;;;;;;;;;;;;;;;;;2196912;59;2676;-18
2024/02/23 04:16:25;;;;;;;;;;;;;;;;;;2200693;66;1256;-18
2024/02/23 04:18:56;;;;;;;;;;;;;;;;;;2199879;66;1555;-18
2024/02/23 04:21:27;;;;;;;;;;;;;;;;;;2200481;66;1645;-18
2024/02/23 04:23:58;;;;;;;;;;;;;;;;;;2201068;59;1358;-18
2024/02/23 04:26:31;;;;;;;;;;;;;;;;;;2198189;66;1177;-18
2024/02/23 04:29:02;;;;;;;;;;;;;;;;;;2200843;66;1333;-18
2024/02/23 04:31:38;;;;;;;;;;;;;;;;;;2200082;66;1937;-18
2024/02/23 04:34:08;;;;;;;;;;;;;;;;;;2200051;66;1336;-18
2024/02/23 04:36:38;;;;;;;;;;;;;;;;;;2199992;66;1272;-18
2024/02/23 04:39:16;;;;;;;;;;;;;;;;;;2196816;59;1788;-18
2024/02/23 04:41:48;;;;;;;;;;;;;;;;;;2199693;66;1467;-18
2024/02/23 04:44:18;;;;;;;;;;;;;;;;;;2198223;66;1383;-18
2024/02/23 04:46:50;;;;;;;;;;;;;;;;;;2197549;59;1410;-18
2024/02/23 04:49:23;;;;;;;;;;;;;;;;;;2200409;66;1496;-18
2024/02/23 04:51:53;;;;;;;;;;;;;;;;;;2200605;59;1895;-19
2024/02/23 04:54:24;;;;;;;;;;;;;;;;;;2200486;66;1363;-18
2024/02/23 04:56:54;;;;;;;;;;;;;;;;;;2197957;66;1459;-18
2024/02/23 04:59:24;;;;;;;;;;;;;;;;;;2197351;59;1459;-19
2024/02/23 05:01:55;;;;;;;;;;;;;;;;;;2197046;66;1298;-19
2024/02/23 05:04:28;;;;;;;;;;;;;;;;;;2201685;59;1431;-18
2024/02/23 05:06:59;;;;;;;;;;;;;;;;;;2200019;66;1276;-19
2024/02/23 05:09:31;;;;;;;;;;;;;;;;;;2201608;59;1161;-18
2024/02/23 05:12:02;;;;;;;;;;;;;;;;;;2197027;59;2393;-18
2024/02/23 05:14:38;;;;;;;;;;;;;;;;;;2199356;58;2082;-18
2024/02/23 05:17:11;;;;;;;;;;;;;;;;;;2201164;66;1790;-18
2024/02/23 05:19:46;;;;;;;;;;;;;;;;;;2203108;66;1161;-19
2024/02/23 05:22:16;;;;;;;;;;;;;;;;;;2201281;66;1230;-19
2024/02/23 05:24:47;;;;;;;;;;;;;;;;;;2200103;59;2079;-18
2024/02/23 05:27:17;;;;;;;;;;;;;;;;;;2201116;66;1459;-18
2024/02/23 05:29:48;;;;;;;;;;;;;;;;;;2200212;66;1247;-18
2024/02/23 05:32:19;;;;;;;;;;;;;;;;;;2200263;66;1992;-18
2024/02/23 05:34:51;;;;;;;;;;;;;;;;;;2211694;66;1274;-25
2024/02/23 05:37:23;;;;;;;;;;;;;;;;;;2200144;66;1146;-18
2024/02/23 05:39:55;;;;;;;;;;;;;;;;;;2200888;59;1697;-18
2024/02/23 05:42:25;;;;;;;;;;;;;;;;;;2202590;59;1605;-18
2024/02/23 05:44:57;;;;;;;;;;;;;;;;;;2201650;59;1321;-18
2024/02/23 05:47:27;;;;;;;;;;;;;;;;;;2202735;66;1140;-18
2024/02/23 05:50:01;;;;;;;;;;;;;;;;;;2197899;66;1677;-18
2024/02/23 05:52:32;;;;;;;;;;;;;;;;;;2198999;66;1940;-18
2024/02/23 05:55:06;;;;;;;;;;;;;;;;;;2200583;66;1289;-18
2024/02/23 05:57:36;;;;;;;;;;;;;;;;;;2200874;66;1326;-19
2024/02/23 06:00:10;;;;;;;;;;;;;;;;;;2201443;66;1167;-19
2024/02/23 06:02:40;;;;;;;;;;;;;;;;;;2198099;59;1560;-18
2024/02/23 06:05:12;;;;;;;;;;;;;;;;;;2198613;66;1223;-18
2024/02/23 06:07:42;;;;;;;;;;;;;;;;;;2211678;66;1136;-18
2024/02/23 06:10:12;;;;;;;;;;;;;;;;;;2201302;66;1297;-18
2024/02/23 06:12:45;;;;;;;;;;;;;;;;;;2200300;66;1936;-18
2024/02/23 06:15:16;;;;;;;;;;;;;;;;;;2203431;59;1620;-19
2024/02/23 06:17:48;;;;;;;;;;;;;;;;;;2199925;66;1608;-18
2024/02/23 06:20:19;;;;;;;;;;;;;;;;;;2199929;66;1108;-18
2024/02/23 06:22:50;;;;;;;;;;;;;;;;;;2197787;66;1332;-18
2024/02/23 06:25:20;;;;;;;;;;;;;;;;;;2200815;59;1424;-18
2024/02/23 06:27:50;;;;;;;;;;;;;;;;;;2199980;66;1784;-18
2024/02/23 06:30:21;;;;;;;;;;;;;;;;;;2201014;66;1885;-18
2024/02/23 06:32:52;;;;;;;;;;;;;;;;;;2201590;66;1215;-18
2024/02/23 06:35:23;;;;;;;;;;;;;;;;;;2197271;66;1437;-18
2024/02/23 06:38:02;;;;;;;;;;;;;;;;;;2200455;66;1120;-18
2024/02/23 06:40:32;;;;;;;;;;;;;;;;;;2200946;59;3676;-18
2024/02/23 06:43:03;;;;;;;;;;;;;;;;;;2202332;66;1582;-18
2024/02/23 06:45:35;;;;;;;;;;;;;;;;;;2200849;58;2249;-18
2024/02/23 06:48:05;;;;;;;;;;;;;;;;;;2201316;66;1728;-18
2024/02/23 06:50:35;;;;;;;;;;;;;;;;;;2204110;66;1894;-19
2024/02/23 06:53:06;;;;;;;;;;;;;;;;;;2202700;66;1231;-18
2024/02/23 06:55:45;;;;;;;;;;;;;;;;;;2200853;66;1135;-18
2024/02/23 06:58:18;;;;;;;;;;;;;;;;;;2199420;66;1544;-18
2024/02/23 07:00:48;;;;;;;;;;;;;;;;;;2199682;59;2182;-18
2024/02/23 07:03:19;;;;;;;;;;;;;;;;;;2197787;59;2292;-18
2024/02/23 07:05:49;;;;;;;;;;;;;;;;;;2197767;59;2399;-18
2024/02/23 07:08:22;;;;;;;;;;;;;;;;;;2200330;59;2645;-18
2024/02/23 07:10:54;;;;;;;;;;;;;;;;;;2195754;59;2540;-18
2024/02/23 07:13:25;;;;;;;;;;;;;;;;;;2200657;59;2492;-18
2024/02/23 07:15:55;;;;;;;;;;;;;;;;;;2199636;63;2366;-18
2024/02/23 07:18:28;;;;;;;;;;;;;;;;;;2199563;60;2382;-18
2024/02/23 07:20:59;;;;;;;;;;;;;;;;;;2198653;59;2905;-19
2024/02/23 07:23:29;;;;;;;;;;;;;;;;;;2200220;58;2519;-18
2024/02/23 07:25:59;;;;;;;;;;;;;;;;;;2199112;59;2379;-18
2024/02/23 07:28:30;;;;;;;;;;;;;;;;;;2199238;59;3846;-18
2024/02/23 07:31:00;;;;;;;;;;;;;;;;;;2197904;59;2257;-18
2024/02/23 07:33:31;;;;;;;;;;;;;;;;;;2195681;59;2352;-18
2024/02/23 07:36:01;;;;;;;;;;;;;;;;;;2199339;59;2241;-19
2024/02/23 07:38:34;;;;;;;;;;;;;;;;;;2194269;59;2737;-18
2024/02/23 07:41:05;;;;;;;;;;;;;;;;;;2195149;59;2301;-18
2024/02/23 07:43:35;;;;;;;;;;;;;;;;;;2197022;59;2872;-18
2024/02/23 07:46:08;;;;;;;;;;;;;;;;;;2198327;59;2312;-18
2024/02/23 07:48:39;;;;;;;;;;;;;;;;;;2200086;58;2182;-18
2024/02/23 07:51:09;;;;;;;;;;;;;;;;;;2196180;59;2131;-18
2024/02/23 07:53:39;;;;;;;;;;;;;;;;;;2199962;66;1541;-18
2024/02/23 07:56:10;;;;;;;;;;;;;;;;;;2198757;59;2510;-18
2024/02/23 07:58:40;;;;;;;;;;;;;;;;;;2198748;59;2552;-18
2024/02/23 08:01:10;;;;;;;;;;;;;;;;;;2196994;59;3941;-18
2024/02/23 08:03:41;;;;;;;;;;;;;;;;;;2196289;59;2389;-18
2024/02/23 08:06:12;;;;;;;;;;;;;;;;;;2199682;58;2291;-18
2024/02/23 08:08:43;;;;;;;;;;;;;;;;;;2198475;66;1621;-19
2024/02/23 08:11:14;;;;;;;;;;;;;;;;;;2198932;66;1919;-18
2024/02/23 08:13:44;;;;;;;;;;;;;;;;;;2200132;58;2411;-18
2024/02/23 08:16:17;;;;;;;;;;;;;;;;;;2198677;59;2503;-18
2024/02/23 08:18:48;;;;;;;;;;;;;;;;;;2200421;58;2235;-18
2024/02/23 08:21:19;;;;;;;;;;;;;;;;;;2198575;66;1572;-18
2024/02/23 08:23:50;;;;;;;;;;;;;;;;;;2201000;59;1920;-18
2024/02/23 08:26:20;;;;;;;;;;;;;;;;;;2197993;59;2255;-19
2024/02/23 08:28:50;;;;;;;;;;;;;;;;;;2198848;66;1817;-18
2024/02/23 08:31:21;;;;;;;;;;;;;;;;;;2198519;66;1933;-18
2024/02/23 08:33:51;;;;;;;;;;;;;;;;;;2195972;66;2017;-18
2024/02/23 08:36:21;;;;;;;;;;;;;;;;;;2198563;59;1491;-18
2024/02/23 08:38:52;;;;;;;;;;;;;;;;;;2199014;66;1865;-18
2024/02/23 08:41:22;;;;;;;;;;;;;;;;;;2194991;59;3138;-18
2024/02/23 08:43:54;;;;;;;;;;;;;;;;;;2198348;66;2050;-18
2024/02/23 08:46:26;;;;;;;;;;;;;;;;;;2199531;59;1621;-18
2024/02/23 08:48:56;;;;;;;;;;;;;;;;;;2200157;66;1675;-18
2024/02/23 08:51:27;;;;;;;;;;;;;;;;;;2197956;66;1988;-18
2024/02/23 08:54:03;;;;;;;;;;;;;;;;;;2195822;59;1536;-18
2024/02/23 08:56:39;;;;;;;;;;;;;;;;;;2201612;59;2899;-18
2024/02/23 08:59:17;;;;;;;;;;;;;;;;;;2199834;59;2333;-18
2024/02/23 09:01:48;;;;;;;;;;;;;;;;;;2200092;59;2019;-18
2024/02/23 09:04:21;;;;;;;;;;;;;;;;;;2196583;59;2007;-18
2024/02/23 09:06:53;;;;;;;;;;;;;;;;;;2201981;59;1800;-18
2024/02/23 09:09:25;;;;;;;;;;;;;;;;;;2212078;66;1919;-18
2024/02/23 09:11:55;;;;;;;;;;;;;;;;;;2200358;66;1955;-18
2024/02/23 09:14:26;;;;;;;;;;;;;;;;;;2202421;59;1860;-18
2024/02/23 09:16:59;;;;;;;;;;;;;;;;;;2200067;59;1685;-18
2024/02/23 09:19:29;;;;;;;;;;;;;;;;;;2200783;66;1681;-18
2024/02/23 09:22:01;;;;;;;;;;;;;;;;;;2198003;66;1655;-18
2024/02/23 09:24:33;;;;;;;;;;;;;;;;;;2200450;66;1562;-18
2024/02/23 09:27:03;;;;;;;;;;;;;;;;;;2198547;59;1619;-18
2024/02/23 09:29:34;;;;;;;;;;;;;;;;;;2195828;59;2817;-18
2024/02/23 09:32:05;;;;;;;;;;;;;;;;;;2197443;59;2903;-18
2024/02/23 09:34:35;;;;;;;;;;;;;;;;;;2198824;59;2454;-19
2024/02/23 09:37:06;;;;;;;;;;;;;;;;;;2197501;66;2392;-18
2024/02/23 09:39:36;;;;;;;;;;;;;;;;;;2200216;59;2350;-18
2024/02/23 09:42:13;;;;;;;;;;;;;;;;;;2197033;66;2812;-18
2024/02/23 09:44:45;;;;;;;;;;;;;;;;;;2199140;59;2124;-19
2024/02/23 09:47:15;;;;;;;;;;;;;;;;;;2198910;59;2279;-18
2024/02/23 09:49:50;;;;;;;;;;;;;;;;;;2201248;66;1684;-18
2024/02/23 09:52:21;;;;;;;;;;;;;;;;;;2199621;66;1938;-18
2024/02/23 09:54:52;;;;;;;;;;;;;;;;;;2198961;59;2684;-19
2024/02/23 09:57:23;;;;;;;;;;;;;;;;;;2194171;59;3551;-18
2024/02/23 09:59:55;;;;;;;;;;;;;;;;;;2200084;58;3939;-21
2024/02/23 10:02:26;;;;;;;;;;;;;;;;;;2200044;59;2726;-21
2024/02/23 10:04:57;;;;;;;;;;;;;;;;;;2201203;59;1702;-21
2024/02/23 10:07:27;;;;;;;;;;;;;;;;;;2198030;59;2953;-20
2024/02/23 10:09:58;;;;;;;;;;;;;;;;;;2198523;59;2986;-21
2024/02/23 10:12:28;;;;;;;;;;;;;;;;;;2198717;66;1983;-20
2024/02/23 10:15:03;;;;;;;;;;;;;;;;;;2199608;59;2029;-21
2024/02/23 10:17:34;;;;;;;;;;;;;;;;;;2201714;59;1717;-20
2024/02/23 10:20:05;;;;;;;;;;;;;;;;;;2200282;66;1570;-20
2024/02/23 10:22:36;;;;;;;;;;;;;;;;;;2198750;66;1515;-20
2024/02/23 10:25:07;;;;;;;;;;;;;;;;;;2197160;66;1724;-20
2024/02/23 10:27:37;;;;;;;;;;;;;;;;;;2200921;59;1450;-20
2024/02/23 10:30:11;;;;;;;;;;;;;;;;;;2198780;59;2565;-20
2024/02/23 10:32:43;;;;;;;;;;;;;;;;;;2198188;59;2941;-20
2024/02/23 10:35:18;;;;;;;;;;;;;;;;;;2197978;59;2979;-20
2024/02/23 10:37:53;;;;;;;;;;;;;;;;;;2198661;59;3790;-20
2024/02/23 10:40:26;;;;;;;;;;;;;;;;;;2199450;59;2936;-20
2024/02/23 10:43:03;;;;;;;;;;;;;;;;;;2197860;59;3466;-20
2024/02/23 10:45:36;;;;;;;;;;;;;;;;;;2201111;58;2101;-21
2024/02/23 10:48:25;;;;;;;;;;;;;;;;;;2200987;66;2032;-20
2024/02/23 10:51:01;;;;;;;;;;;;;;;;;;2201743;66;2257;-20
2024/02/23 10:53:31;;;;;;;;;;;;;;;;;;2200542;66;2097;-20
2024/02/23 10:56:03;;;;;;;;;;;;;;;;;;2200603;59;1663;-20
2024/02/23 10:58:33;;;;;;;;;;;;;;;;;;2198713;66;1322;-20
2024/02/23 11:01:06;;;;;;;;;;;;;;;;;;2201034;66;1333;-21
2024/02/23 11:03:42;;;;;;;;;;;;;;;;;;2200723;66;1532;-20
2024/02/23 11:06:13;;;;;;;;;;;;;;;;;;2200126;66;1707;-21
2024/02/23 11:08:43;;;;;;;;;;;;;;;;;;2196558;67;1374;-21
2024/02/23 11:11:19;;;;;;;;;;;;;;;;;;2196247;66;2244;-21
2024/02/23 11:13:55;;;;;;;;;;;;;;;;;;2201411;59;1859;-21
2024/02/23 11:16:27;;;;;;;;;;;;;;;;;;2200182;66;1322;-21
2024/02/23 11:19:03;;;;;;;;;;;;;;;;;;2201334;66;1632;-21
2024/02/23 11:21:38;;;;;;;;;;;;;;;;;;2200293;66;1498;-20
2024/02/23 11:24:17;;;;;;;;;;;;;;;;;;2200651;59;2275;-21
2024/02/23 11:26:47;;;;;;;;;;;;;;;;;;2204547;59;1480;-21
2024/02/23 11:29:18;;;;;;;;;;;;;;;;;;2200511;59;1639;-21
2024/02/23 11:31:51;;;;;;;;;;;;;;;;;;2201116;66;1925;-21
2024/02/23 11:34:21;;;;;;;;;;;;;;;;;;2198605;59;1706;-21
2024/02/23 11:36:59;;;;;;;;;;;;;;;;;;2199842;66;1532;-21
2024/02/23 11:39:32;;;;;;;;;;;;;;;;;;2201340;59;1853;-21
2024/02/23 11:42:04;;;;;;;;;;;;;;;;;;2200053;59;1578;-21
2024/02/23 11:44:38;;;;;;;;;;;;;;;;;;2200763;59;1548;-21
2024/02/23 11:47:11;;;;;;;;;;;;;;;;;;2207576;59;1981;-21
2024/02/23 11:49:41;;;;;;;;;;;;;;;;;;2202516;66;1511;-21
2024/02/23 11:52:12;;;;;;;;;;;;;;;;;;2193488;66;1953;-21
2024/02/23 11:54:46;;;;;;;;;;;;;;;;;;2202032;66;1601;-21
2024/02/23 11:57:16;;;;;;;;;;;;;;;;;;2199807;66;1523;-21
2024/02/23 11:59:47;;;;;;;;;;;;;;;;;;2200325;66;1602;-21
2024/02/23 12:02:17;;;;;;;;;;;;;;;;;;2200550;66;1732;-21
2024/02/23 12:04:48;;;;;;;;;;;;;;;;;;2200718;66;1848;-21
2024/02/23 12:07:18;;;;;;;;;;;;;;;;;;2197771;59;1759;-21
2024/02/23 12:09:49;;;;;;;;;;;;;;;;;;2202739;58;3047;-21
2024/02/23 12:12:19;;;;;;;;;;;;;;;;;;2200368;66;1907;-21
2024/02/23 12:14:50;;;;;;;;;;;;;;;;;;2200657;59;2023;-21
2024/02/23 12:17:20;;;;;;;;;;;;;;;;;;2199925;66;1718;-21
2024/02/23 12:19:59;;;;;;;;;;;;;;;;;;2201327;66;1558;-21
2024/02/23 12:22:29;;;;;;;;;;;;;;;;;;2201313;66;1897;-21
2024/02/23 12:25:00;;;;;;;;;;;;;;;;;;2200716;66;1606;-21
2024/02/23 12:27:30;;;;;;;;;;;;;;;;;;2197099;59;1648;-21
2024/02/23 12:30:02;;;;;;;;;;;;;;;;;;2201128;66;1554;-21
2024/02/23 12:32:32;;;;;;;;;;;;;;;;;;2200513;66;1912;-21
2024/02/23 12:35:04;;;;;;;;;;;;;;;;;;2201646;66;2457;-21
2024/02/23 12:37:35;;;;;;;;;;;;;;;;;;2200518;66;1487;-21
2024/02/23 12:40:09;;;;;;;;;;;;;;;;;;2198849;59;2072;-21
2024/02/23 12:42:39;;;;;;;;;;;;;;;;;;2198849;66;5697;-21
2024/02/23 12:45:13;;;;;;;;;;;;;;;;;;2203005;59;3108;-21
2024/02/23 12:47:43;;;;;;;;;;;;;;;;;;2199308;66;1757;-21
2024/02/23 12:50:13;;;;;;;;;;;;;;;;;;2194908;59;1973;-21
2024/02/23 12:52:44;;;;;;;;;;;;;;;;;;2200748;66;2571;-21
2024/02/23 12:55:16;;;;;;;;;;;;;;;;;;2199407;66;3214;-21
2024/02/23 12:57:46;;;;;;;;;;;;;;;;;;2200589;66;2484;-21
2024/02/23 13:00:17;;;;;;;;;;;;;;;;;;2197810;59;3281;-21
2024/02/23 13:02:47;;;;;;;;;;;;;;;;;;2199494;59;2499;-21
2024/02/23 13:05:17;;;;;;;;;;;;;;;;;;2195261;66;2212;-21
2024/02/23 13:07:48;;;;;;;;;;;;;;;;;;2199676;58;2492;-21
2024/02/23 13:10:20;;;;;;;;;;;;;;;;;;2199832;66;3086;-21
2024/02/23 13:12:50;;;;;;;;;;;;;;;;;;2199544;66;2571;-21
2024/02/23 13:15:22;;;;;;;;;;;;;;;;;;2200496;59;2551;-21
2024/02/23 13:17:52;;;;;;;;;;;;;;;;;;2200545;66;1766;-21
2024/02/23 13:20:22;;;;;;;;;;;;;;;;;;2199350;59;2629;-21
2024/02/23 13:22:56;;;;;;;;;;;;;;;;;;2200293;60;2897;-21
2024/02/23 13:25:27;;;;;;;;;;;;;;;;;;2198734;66;1828;-21
2024/02/23 13:27:58;;;;;;;;;;;;;;;;;;2200065;59;2403;-21
2024/02/23 13:30:29;;;;;;;;;;;;;;;;;;2196022;66;2612;-21
2024/02/23 13:33:00;;;;;;;;;;;;;;;;;;2196712;66;2677;-21
2024/02/23 13:35:33;;;;;;;;;;;;;;;;;;2195507;66;1881;-21
2024/02/23 13:38:04;;;;;;;;;;;;;;;;;;2201309;66;1763;-21
2024/02/23 13:40:34;;;;;;;;;;;;;;;;;;2196804;59;2708;-21
2024/02/23 13:43:05;;;;;;;;;;;;;;;;;;2200477;59;1718;-21
2024/02/23 13:45:51;;;;;;;;;;;;;;;;;;2200621;59;1892;-21
2024/02/23 13:48:22;;;;;;;;;;;;;;;;;;2196795;66;3110;-21
2024/02/23 13:50:52;;;;;;;;;;;;;;;;;;2202718;59;2669;-21
2024/02/23 13:53:23;;;;;;;;;;;;;;;;;;2196065;66;2092;-21
2024/02/23 13:55:54;;;;;;;;;;;;;;;;;;2197886;66;2603;-21
2024/02/23 13:58:28;;;;;;;;;;;;;;;;;;2199540;59;2041;-21
2024/02/23 14:00:59;;;;;;;;;;;;;;;;;;2201313;66;1985;-21
2024/02/23 14:03:30;;;;;;;;;;;;;;;;;;2200440;59;2762;-21
2024/02/23 14:06:03;;;;;;;;;;;;;;;;;;2200601;59;2630;-21
2024/02/23 14:08:38;;;;;;;;;;;;;;;;;;2200711;59;2441;-21
2024/02/23 14:11:08;;;;;;;;;;;;;;;;;;2200045;59;2210;-21
2024/02/23 14:13:44;;;;;;;;;;;;;;;;;;2199865;59;1830;-21
2024/02/23 14:16:14;;;;;;;;;;;;;;;;;;2201414;59;2583;-21
2024/02/23 14:18:45;;;;;;;;;;;;;;;;;;2199535;59;2846;-21
2024/02/23 14:21:16;;;;;;;;;;;;;;;;;;2200247;66;2856;-21
2024/02/23 14:23:46;;;;;;;;;;;;;;;;;;2199566;66;2448;-21
2024/02/23 14:26:16;;;;;;;;;;;;;;;;;;2200488;59;2676;-21
2024/02/23 14:28:47;;;;;;;;;;;;;;;;;;2200328;59;1991;-21
2024/02/23 14:31:17;;;;;;;;;;;;;;;;;;2196690;66;2060;-21
2024/02/23 14:33:50;;;;;;;;;;;;;;;;;;2201036;58;2437;-21
2024/02/23 14:36:21;;;;;;;;;;;;;;;;;;2198703;59;1983;-21
2024/02/23 14:38:52;;;;;;;;;;;;;;;;;;2199860;59;2673;-21
2024/02/23 14:41:22;;;;;;;;;;;;;;;;;;2197817;59;3179;-21
2024/02/23 14:43:53;;;;;;;;;;;;;;;;;;2199145;66;1861;-21
2024/02/23 14:46:23;;;;;;;;;;;;;;;;;;2197964;59;2570;-21
2024/02/23 14:48:55;;;;;;;;;;;;;;;;;;2212119;66;3419;-21
2024/02/23 14:51:25;;;;;;;;;;;;;;;;;;2200772;59;1978;-21
2024/02/23 14:54:02;;;;;;;;;;;;;;;;;;2195938;66;2833;-21
2024/02/23 14:56:33;;;;;;;;;;;;;;;;;;2199011;59;3361;-21
2024/02/23 14:59:10;;;;;;;;;;;;;;;;;;2198668;66;3257;-21
2024/02/23 15:01:43;;;;;;;;;;;;;;;;;;2210004;66;2632;-21
2024/02/23 15:04:14;;;;;;;;;;;;;;;;;;2199921;59;1760;-21
2024/02/23 15:06:44;;;;;;;;;;;;;;;;;;2198944;66;2568;-21
2024/02/23 15:09:15;;;;;;;;;;;;;;;;;;2197999;59;1854;-21
2024/02/23 15:11:49;;;;;;;;;;;;;;;;;;2195905;66;2638;-20
2024/02/23 15:14:21;;;;;;;;;;;;;;;;;;2199818;59;1972;-21
2024/02/23 15:16:51;;;;;;;;;;;;;;;;;;2198126;66;1863;-21
2024/02/23 15:19:23;;;;;;;;;;;;;;;;;;2198720;66;1865;-21
2024/02/23 15:21:54;;;;;;;;;;;;;;;;;;2197739;59;3690;-21
2024/02/23 15:24:24;;;;;;;;;;;;;;;;;;2199700;59;2747;-21
2024/02/23 15:26:55;;;;;;;;;;;;;;;;;;2201045;59;3042;-20
2024/02/23 15:29:25;;;;;;;;;;;;;;;;;;2198554;59;2452;-21
2024/02/23 15:31:56;;;;;;;;;;;;;;;;;;2199977;66;2484;-20
2024/02/23 15:34:26;;;;;;;;;;;;;;;;;;2196870;59;2993;-21
2024/02/23 15:36:58;;;;;;;;;;;;;;;;;;2199922;66;1987;-21
2024/02/23 15:39:30;;;;;;;;;;;;;;;;;;2195726;59;2671;-21
2024/02/23 15:42:00;;;;;;;;;;;;;;;;;;2200980;59;3209;-21
2024/02/23 15:44:31;;;;;;;;;;;;;;;;;;2198142;59;2681;-21
2024/02/23 15:47:01;;;;;;;;;;;;;;;;;;2200333;59;2574;-20
2024/02/23 15:49:35;;;;;;;;;;;;;;;;;;2198680;66;2508;-21
2024/02/23 15:52:05;;;;;;;;;;;;;;;;;;2199383;66;3021;-21
2024/02/23 15:54:37;;;;;;;;;;;;;;;;;;2202256;66;2642;-20
2024/02/23 15:57:07;;;;;;;;;;;;;;;;;;2198889;59;2184;-20
2024/02/23 15:59:38;;;;;;;;;;;;;;;;;;2200178;59;3447;-20
2024/02/23 16:02:11;;;;;;;;;;;;;;;;;;2199828;66;2581;-27
2024/02/23 16:04:41;;;;;;;;;;;;;;;;;;2199810;66;2691;-20
2024/02/23 16:07:13;;;;;;;;;;;;;;;;;;2199983;66;2728;-20
2024/02/23 16:09:43;;;;;;;;;;;;;;;;;;2197946;66;1843;-20
2024/02/23 16:12:19;;;;;;;;;;;;;;;;;;2196482;66;2963;-21
2024/02/23 16:14:50;;;;;;;;;;;;;;;;;;2199579;59;2953;-20
2024/02/23 16:17:20;;;;;;;;;;;;;;;;;;2192842;67;2594;-20
2024/02/23 16:19:52;;;;;;;;;;;;;;;;;;2197750;66;2937;-20
2024/02/23 16:22:23;;;;;;;;;;;;;;;;;;2197233;59;2932;-18
2024/02/23 16:24:53;;;;;;;;;;;;;;;;;;2199340;59;1943;-18
2024/02/23 16:27:24;;;;;;;;;;;;;;;;;;2200164;59;3191;-18
2024/02/23 16:29:54;;;;;;;;;;;;;;;;;;2199896;59;1869;-18
2024/02/23 16:32:25;;;;;;;;;;;;;;;;;;2201683;66;1929;-18
2024/02/23 16:34:55;;;;;;;;;;;;;;;;;;2199342;66;2455;-19
2024/02/23 16:37:27;;;;;;;;;;;;;;;;;;2199237;59;2320;-18
2024/02/23 16:39:57;;;;;;;;;;;;;;;;;;2200638;59;2969;-18
2024/02/23 16:42:28;;;;;;;;;;;;;;;;;;2196256;66;2137;-18
2024/02/23 16:44:58;;;;;;;;;;;;;;;;;;2197808;59;1954;-19
2024/02/23 16:47:29;;;;;;;;;;;;;;;;;;2200394;66;1900;-18
2024/02/23 16:50:01;;;;;;;;;;;;;;;;;;2200153;66;1834;-18
2024/02/23 16:52:31;;;;;;;;;;;;;;;;;;2200118;66;1932;-18
2024/02/23 16:55:01;;;;;;;;;;;;;;;;;;2200942;67;1832;-18
2024/02/23 16:57:33;;;;;;;;;;;;;;;;;;2199561;59;2217;-18
2024/02/23 17:00:04;;;;;;;;;;;;;;;;;;2200874;59;2420;-18
2024/02/23 17:02:38;;;;;;;;;;;;;;;;;;2198580;59;2900;-18
2024/02/23 17:05:24;;;;;;;;;;;;;;;;;;2201046;66;1956;-18
2024/02/23 17:07:56;;;;;;;;;;;;;;;;;;2211036;66;2273;-18
2024/02/23 17:10:27;;;;;;;;;;;;;;;;;;2213678;59;2498;-18
2024/02/23 17:13:00;;;;;;;;;;;;;;;;;;2199330;66;1922;-18
2024/02/23 17:15:33;;;;;;;;;;;;;;;;;;2199557;59;2516;-18
2024/02/23 17:18:04;;;;;;;;;;;;;;;;;;2199993;66;2620;-18
2024/02/23 17:20:34;;;;;;;;;;;;;;;;;;2199562;66;2752;-18
2024/02/23 17:23:05;;;;;;;;;;;;;;;;;;2201365;66;2948;-18
2024/02/23 17:25:35;;;;;;;;;;;;;;;;;;2210050;66;2454;-18
2024/02/23 17:28:08;;;;;;;;;;;;;;;;;;2206730;66;2839;-17
2024/02/23 17:30:40;;;;;;;;;;;;;;;;;;2199039;59;2574;-17
2024/02/23 17:33:10;;;;;;;;;;;;;;;;;;2200340;66;2620;-17